Time,TemperatureF,DewpointF,PressureIn,WindDirection,WindDirectionDegrees,WindSpeedMPH,WindSpeedGustMPH,Humidity,HourlyPrecipIn,Conditions,Clouds,dailyrainin,SoftwareType,DateUTC
2013-02-25 00:04:00,73.3,69.9,29.95,ENE,65,0.0,0.0,89,0.00,,,0.00,Wunderground v.1.15,2013-02-24 13:04:00,
2013-02-25 00:09:00,73.1,69.7,29.95,ESE,112,0.0,0.0,89,0.00,,,0.00,Wunderground v.1.15,2013-02-24 13:09:00,
2013-02-25 00:15:00,73.0,69.6,29.95,South,188,0.0,0.0,89,0.00,,,0.00,Wunderground v.1.15,2013-02-24 13:15:00,
2013-02-25 00:20:00,73.1,69.7,29.95,ENE,67,0.0,1.0,89,0.00,,,-99.99,WeatherLink 5.9.3,2013-02-24 13:20:00,
2013-02-25 00:26:00,72.7,69.6,29.95,South,188,0.0,0.0,90,0.00,,,0.00,Wunderground v.1.15,2013-02-24 13:26:00,
2013-02-25 00:31:00,72.4,69.3,29.95,South,188,0.0,0.0,90,0.00,,,0.00,Wunderground v.1.15,2013-02-24 13:31:00,
2013-02-25 00:36:00,72.2,69.1,29.95,South,188,0.0,0.0,90,0.00,,,0.00,Wunderground v.1.15,2013-02-24 13:36:00,
2013-02-25 00:42:00,72.1,69.3,29.95,South,188,0.0,0.0,91,0.00,,,0.00,Wunderground v.1.15,2013-02-24 13:42:00,
2013-02-25 00:48:00,72.0,69.2,29.95,South,185,0.0,0.0,91,0.00,,,0.00,Wunderground v.1.15,2013-02-24 13:48:00,
2013-02-25 00:53:00,71.8,69.0,29.94,South,184,0.0,0.0,91,0.00,,,0.00,Wunderground v.1.15,2013-02-24 13:53:00,
2013-02-25 00:59:00,71.6,68.8,29.94,South,183,0.0,0.0,91,0.00,,,0.00,Wunderground v.1.15,2013-02-24 13:59:00,
2013-02-25 01:04:00,71.6,69.2,29.94,South,183,0.0,0.0,92,0.00,,,0.00,Wunderground v.1.15,2013-02-24 14:04:00,
2013-02-25 01:10:00,71.6,69.2,29.94,South,180,0.0,1.0,92,0.00,,,-99.99,WeatherLink 5.9.3,2013-02-24 14:10:00,
2013-02-25 01:16:00,71.3,68.9,29.94,South,184,0.0,0.0,92,0.00,,,0.00,Wunderground v.1.15,2013-02-24 14:16:00,
2013-02-25 01:21:00,71.2,68.8,29.94,South,184,0.0,0.0,92,0.00,,,0.00,Wunderground v.1.15,2013-02-24 14:21:00,
2013-02-25 01:26:00,71.1,68.7,29.94,South,184,0.0,0.0,92,0.00,,,0.00,Wunderground v.1.15,2013-02-24 14:26:00,
2013-02-25 01:32:00,71.0,68.6,29.94,South,184,0.0,0.0,92,0.00,,,0.00,Wunderground v.1.15,2013-02-24 14:32:00,
2013-02-25 01:38:00,70.8,68.4,29.93,South,183,0.0,0.0,92,0.00,,,0.00,Wunderground v.1.15,2013-02-24 14:38:00,
2013-02-25 01:43:00,70.6,68.5,29.94,South,183,0.0,0.0,93,0.00,,,0.00,Wunderground v.1.15,2013-02-24 14:43:00,
2013-02-25 01:49:00,70.5,68.4,29.93,South,183,0.0,0.0,93,0.00,,,0.00,Wunderground v.1.15,2013-02-24 14:49:00,
2013-02-25 01:54:00,70.3,68.2,29.93,South,184,0.0,0.0,93,0.00,,,0.00,Wunderground v.1.15,2013-02-24 14:54:00,
2013-02-25 01:59:00,70.1,68.0,29.93,South,183,0.0,0.0,93,0.00,,,0.00,Wunderground v.1.15,2013-02-24 14:59:00,
2013-02-25 02:04:00,70.0,67.9,29.93,South,184,0.0,0.0,93,0.00,,,0.00,Wunderground v.1.15,2013-02-24 15:04:00,
2013-02-25 02:09:00,69.9,67.8,29.93,South,183,0.0,0.0,93,0.00,,,0.00,Wunderground v.1.15,2013-02-24 15:09:00,
2013-02-25 02:14:00,69.9,68.1,29.93,South,183,0.0,0.0,94,0.00,,,0.00,Wunderground v.1.15,2013-02-24 15:14:00,
2013-02-25 02:19:00,69.9,68.1,29.93,SW,230,0.0,0.0,94,0.00,,,0.00,Wunderground v.1.15,2013-02-24 15:19:00,
2013-02-25 02:24:00,69.8,68.0,29.93,SW,230,0.0,0.0,94,0.00,,,0.00,Wunderground v.1.15,2013-02-24 15:24:00,
2013-02-25 02:29:00,69.8,68.0,29.93,West,279,0.0,1.0,94,0.00,,,0.00,Wunderground v.1.15,2013-02-24 15:29:00,
2013-02-25 02:34:00,69.7,67.9,29.94,West,279,0.0,0.0,94,0.00,,,0.00,Wunderground v.1.15,2013-02-24 15:34:00,
2013-02-25 02:39:00,69.7,67.9,29.93,West,278,0.0,0.0,94,0.00,,,0.00,Wunderground v.1.15,2013-02-24 15:39:00,
2013-02-25 02:45:00,69.6,67.8,29.94,West,278,0.0,1.0,94,0.00,,,0.00,Wunderground v.1.15,2013-02-24 15:45:00,
2013-02-25 02:50:00,69.7,67.9,29.93,North,-999,0.0,0.0,94,0.00,,,-99.99,WeatherLink 5.9.3,2013-02-24 15:50:00,
2013-02-25 02:55:00,69.4,67.6,29.94,West,278,0.0,0.0,94,0.00,,,0.00,Wunderground v.1.15,2013-02-24 15:55:00,
2013-02-25 03:00:00,69.5,67.7,29.94,North,-999,0.0,0.0,94,0.00,,,-99.99,WeatherLink 5.9.3,2013-02-24 16:00:00,
2013-02-25 03:05:00,69.1,67.3,29.94,West,279,0.0,0.0,94,0.00,,,0.00,Wunderground v.1.15,2013-02-24 16:05:00,
2013-02-25 03:10:00,69.3,67.5,29.94,North,-999,0.0,0.0,94,0.00,,,-99.99,WeatherLink 5.9.3,2013-02-24 16:10:00,
2013-02-25 03:15:00,69.0,67.5,29.93,West,278,0.0,0.0,95,0.00,,,0.00,Wunderground v.1.15,2013-02-24 16:15:00,
2013-02-25 03:21:00,69.1,67.6,29.94,North,-999,0.0,0.0,95,0.00,,,-99.99,WeatherLink 5.9.3,2013-02-24 16:21:00,
2013-02-25 03:26:00,68.6,66.8,29.93,West,279,0.0,0.0,94,0.00,,,0.00,Wunderground v.1.15,2013-02-24 16:26:00,
2013-02-25 03:31:00,68.5,67.0,29.93,West,279,0.0,0.0,95,0.00,,,0.00,Wunderground v.1.15,2013-02-24 16:31:00,
2013-02-25 03:36:00,68.6,67.1,29.93,WNW,286,0.0,1.0,95,0.00,,,0.00,Wunderground v.1.15,2013-02-24 16:36:00,
2013-02-25 03:41:00,68.5,67.0,29.93,North,-999,0.0,0.0,95,0.00,,,-99.99,WeatherLink 5.9.3,2013-02-24 16:41:00,
2013-02-25 03:46:00,68.7,67.2,29.94,WNW,302,0.0,0.0,95,0.00,,,0.00,Wunderground v.1.15,2013-02-24 16:46:00,
2013-02-25 03:51:00,68.6,67.1,29.94,WNW,302,0.0,0.0,95,0.00,,,0.00,Wunderground v.1.15,2013-02-24 16:51:00,
2013-02-25 03:56:00,68.4,66.9,29.93,WNW,302,0.0,0.0,95,0.00,,,0.00,Wunderground v.1.15,2013-02-24 16:56:00,
2013-02-25 04:01:00,68.2,66.7,29.93,WNW,302,0.0,0.0,95,0.00,,,0.00,Wunderground v.1.15,2013-02-24 17:01:00,
2013-02-25 04:06:00,68.1,66.6,29.93,WNW,302,0.0,0.0,95,0.00,,,0.00,Wunderground v.1.15,2013-02-24 17:06:00,
2013-02-25 04:11:00,68.2,66.7,29.93,North,-999,0.0,0.0,95,0.00,,,-99.99,WeatherLink 5.9.3,2013-02-24 17:11:00,
2013-02-25 04:16:00,68.1,66.6,29.93,WNW,302,0.0,0.0,95,0.00,,,0.00,Wunderground v.1.15,2013-02-24 17:16:00,
2013-02-25 04:21:00,68.1,66.6,29.93,North,-999,0.0,0.0,95,0.00,,,-99.99,WeatherLink 5.9.3,2013-02-24 17:21:00,
2013-02-25 04:26:00,67.9,66.4,29.93,WNW,302,0.0,0.0,95,0.00,,,0.00,Wunderground v.1.15,2013-02-24 17:26:00,
2013-02-25 04:31:00,67.8,66.3,29.94,WNW,302,0.0,0.0,95,0.00,,,0.00,Wunderground v.1.15,2013-02-24 17:31:00,
2013-02-25 04:36:00,67.8,66.3,29.94,WNW,302,0.0,0.0,95,0.00,,,0.00,Wunderground v.1.15,2013-02-24 17:36:00,
2013-02-25 04:41:00,67.8,66.3,29.94,WNW,302,0.0,0.0,95,0.00,,,0.00,Wunderground v.1.15,2013-02-24 17:41:00,
2013-02-25 04:46:00,67.8,66.6,29.94,WNW,303,0.0,0.0,96,0.00,,,0.00,Wunderground v.1.15,2013-02-24 17:46:00,
2013-02-25 04:51:00,67.9,66.7,29.94,WSW,241,0.0,0.0,96,0.00,,,0.00,Wunderground v.1.15,2013-02-24 17:51:00,
2013-02-25 04:56:00,68.0,66.8,29.94,WSW,239,0.0,1.0,96,0.00,,,0.00,Wunderground v.1.15,2013-02-24 17:56:00,
2013-02-25 05:01:00,68.0,66.8,29.94,WNW,291,0.0,0.0,96,0.00,,,0.00,Wunderground v.1.15,2013-02-24 18:01:00,
2013-02-25 05:06:00,68.0,66.8,29.95,WNW,291,0.0,1.0,96,0.00,,,0.00,Wunderground v.1.15,2013-02-24 18:06:00,
2013-02-25 05:11:00,68.0,66.8,29.95,SSW,192,0.0,1.0,96,0.00,,,0.00,Wunderground v.1.15,2013-02-24 18:11:00,
2013-02-25 05:16:00,68.0,66.8,29.95,SW,218,0.0,1.0,96,0.00,,,0.00,Wunderground v.1.15,2013-02-24 18:16:00,
2013-02-25 05:21:00,68.0,66.8,29.95,SW,219,0.0,0.0,96,0.00,,,0.00,Wunderground v.1.15,2013-02-24 18:21:00,
2013-02-25 05:26:00,67.9,66.7,29.95,SW,218,0.0,0.0,96,0.00,,,0.00,Wunderground v.1.15,2013-02-24 18:26:00,
2013-02-25 05:31:00,67.8,66.6,29.95,SW,218,0.0,0.0,96,0.00,,,0.00,Wunderground v.1.15,2013-02-24 18:31:00,
2013-02-25 05:36:00,67.7,66.5,29.95,SW,218,0.0,0.0,96,0.00,,,0.00,Wunderground v.1.15,2013-02-24 18:36:00,
2013-02-25 05:41:00,67.6,66.4,29.95,SW,218,0.0,0.0,96,0.00,,,0.00,Wunderground v.1.15,2013-02-24 18:41:00,
2013-02-25 05:46:00,67.5,66.3,29.95,SW,218,0.0,0.0,96,0.00,,,0.00,Wunderground v.1.15,2013-02-24 18:46:00,
2013-02-25 05:51:00,67.4,66.2,29.95,SW,218,0.0,0.0,96,0.00,,,0.00,Wunderground v.1.15,2013-02-24 18:51:00,
2013-02-25 05:56:00,67.4,66.2,29.96,SW,219,0.0,0.0,96,0.00,,,0.00,Wunderground v.1.15,2013-02-24 18:56:00,
2013-02-25 06:01:00,67.3,66.1,29.96,SW,218,0.0,0.0,96,0.00,,,0.00,Wunderground v.1.15,2013-02-24 19:01:00,
2013-02-25 06:06:00,67.1,65.9,29.96,SW,218,0.0,0.0,96,0.00,,,0.00,Wunderground v.1.15,2013-02-24 19:06:00,
2013-02-25 06:11:00,66.9,65.7,29.96,SW,219,0.0,0.0,96,0.00,,,0.00,Wunderground v.1.15,2013-02-24 19:11:00,
2013-02-25 06:16:00,66.8,65.6,29.96,SW,219,0.0,0.0,96,0.00,,,0.00,Wunderground v.1.15,2013-02-24 19:16:00,
2013-02-25 06:21:00,66.9,65.7,29.96,SW,219,0.0,0.0,96,0.00,,,0.00,Wunderground v.1.15,2013-02-24 19:21:00,
2013-02-25 06:26:00,66.9,65.7,29.96,SW,219,0.0,0.0,96,0.00,,,0.00,Wunderground v.1.15,2013-02-24 19:26:00,
2013-02-25 06:31:00,67.0,65.8,29.97,SW,218,0.0,0.0,96,0.00,,,0.00,Wunderground v.1.15,2013-02-24 19:31:00,
2013-02-25 06:36:00,66.9,65.7,29.97,SW,218,0.0,0.0,96,0.00,,,0.00,Wunderground v.1.15,2013-02-24 19:36:00,
2013-02-25 06:41:00,66.9,65.7,29.97,SW,218,0.0,0.0,96,0.00,,,0.00,Wunderground v.1.15,2013-02-24 19:41:00,
2013-02-25 06:46:00,66.9,65.7,29.98,SW,219,0.0,0.0,96,0.00,,,0.00,Wunderground v.1.15,2013-02-24 19:46:00,
2013-02-25 06:51:00,66.9,65.7,29.98,SW,218,0.0,0.0,96,0.00,,,0.00,Wunderground v.1.15,2013-02-24 19:51:00,
2013-02-25 06:56:00,67.1,65.9,29.98,SW,218,0.0,0.0,96,0.00,,,0.00,Wunderground v.1.15,2013-02-24 19:56:00,
2013-02-25 07:01:00,67.5,66.6,29.98,SW,219,0.0,0.0,97,0.00,,,0.00,Wunderground v.1.15,2013-02-24 20:01:00,
2013-02-25 07:06:00,67.7,66.8,29.98,SW,219,0.0,0.0,97,0.00,,,0.00,Wunderground v.1.15,2013-02-24 20:06:00,
2013-02-25 07:11:00,67.9,67.0,29.98,SW,218,0.0,0.0,97,0.00,,,0.00,Wunderground v.1.15,2013-02-24 20:11:00,
2013-02-25 07:16:00,67.9,66.7,29.98,SW,218,0.0,0.0,96,0.00,,,0.00,Wunderground v.1.15,2013-02-24 20:16:00,
2013-02-25 07:21:00,67.9,66.7,29.99,SW,218,0.0,0.0,96,0.00,,,0.00,Wunderground v.1.15,2013-02-24 20:21:00,
2013-02-25 07:26:00,68.4,67.5,29.99,SW,217,0.0,1.0,97,0.00,,,0.00,Wunderground v.1.15,2013-02-24 20:26:00,
2013-02-25 07:31:00,69.1,68.2,29.99,SW,219,0.0,0.0,97,0.00,,,0.00,Wunderground v.1.15,2013-02-24 20:31:00,
2013-02-25 07:36:00,69.7,68.8,29.99,SW,218,0.0,0.0,97,0.00,,,0.00,Wunderground v.1.15,2013-02-24 20:36:00,
2013-02-25 07:41:00,69.8,68.6,29.99,SW,214,0.0,1.0,96,0.00,,,0.00,Wunderground v.1.15,2013-02-24 20:41:00,
2013-02-25 07:46:00,70.1,68.9,29.99,SSW,204,0.0,1.0,96,0.00,,,0.00,Wunderground v.1.15,2013-02-24 20:46:00,
2013-02-25 07:51:00,70.9,69.4,29.99,SSW,205,0.0,1.0,95,0.00,,,0.00,Wunderground v.1.15,2013-02-24 20:51:00,
2013-02-25 07:56:00,71.7,69.9,29.99,West,259,0.0,1.0,94,0.00,,,0.00,Wunderground v.1.15,2013-02-24 20:56:00,
2013-02-25 08:01:00,72.4,69.6,30.00,SSW,199,1.0,2.0,91,0.00,,,0.00,Wunderground v.1.15,2013-02-24 21:01:00,
2013-02-25 08:06:00,73.1,70.0,30.00,SW,218,1.0,2.0,90,0.00,,,0.00,Wunderground v.1.15,2013-02-24 21:06:00,
2013-02-25 08:11:00,74.2,70.4,30.00,SW,216,1.0,3.0,88,0.00,,,0.00,Wunderground v.1.15,2013-02-24 21:11:00,
2013-02-25 08:16:00,74.7,70.6,30.00,SW,236,0.0,3.0,87,0.00,,,0.00,Wunderground v.1.15,2013-02-24 21:16:00,
2013-02-25 08:21:00,75.5,71.0,30.01,WSW,242,1.0,2.0,86,0.00,,,0.00,Wunderground v.1.15,2013-02-24 21:21:00,
2013-02-25 08:27:00,75.9,70.4,30.01,ENE,60,0.0,3.0,83,0.00,,,0.00,Wunderground v.1.15,2013-02-24 21:27:00,
2013-02-25 08:31:00,76.6,70.3,30.01,ENE,77,1.0,2.0,81,0.00,,,0.00,Wunderground v.1.15,2013-02-24 21:31:00,
2013-02-25 08:36:00,76.8,70.2,30.01,NE,52,0.0,2.0,80,0.00,,,0.00,Wunderground v.1.15,2013-02-24 21:36:00,
2013-02-25 08:41:00,77.6,70.9,30.02,East,86,2.0,3.0,80,0.00,,,0.00,Wunderground v.1.15,2013-02-24 21:41:00,
2013-02-25 08:46:00,77.4,70.4,30.02,East,79,3.0,3.0,79,0.00,,,0.00,Wunderground v.1.15,2013-02-24 21:46:00,
2013-02-25 08:51:00,77.1,70.1,30.02,ENE,58,1.0,4.0,79,0.00,,,0.00,Wunderground v.1.15,2013-02-24 21:51:00,
2013-02-25 08:56:00,77.3,70.3,30.02,East,94,0.0,4.0,79,0.00,,,0.00,Wunderground v.1.15,2013-02-24 21:56:00,
2013-02-25 09:02:00,77.9,70.5,30.02,ENE,70,1.0,2.0,78,0.00,,,0.00,Wunderground v.1.15,2013-02-24 22:02:00,
2013-02-25 09:07:00,78.5,70.7,30.02,SSE,160,0.0,2.0,77,0.00,,,0.00,Wunderground v.1.15,2013-02-24 22:07:00,
2013-02-25 09:12:00,78.7,70.5,30.02,East,101,2.0,4.0,76,0.00,,,0.00,Wunderground v.1.15,2013-02-24 22:12:00,
2013-02-25 09:17:00,78.6,70.4,30.02,East,90,2.0,4.0,76,0.00,,,0.00,Wunderground v.1.15,2013-02-24 22:17:00,
2013-02-25 09:22:00,78.6,70.4,30.02,NNE,12,1.0,4.0,76,0.00,,,0.00,Wunderground v.1.15,2013-02-24 22:22:00,
2013-02-25 09:27:00,78.8,70.6,30.03,NNE,31,4.0,5.0,76,0.00,,,0.00,Wunderground v.1.15,2013-02-24 22:27:00,
2013-02-25 09:32:00,78.9,70.7,30.02,ENE,69,1.0,3.0,76,0.00,,,0.00,Wunderground v.1.15,2013-02-24 22:32:00,
2013-02-25 09:37:00,79.1,70.1,30.02,NE,52,0.0,6.0,74,0.00,,,0.00,Wunderground v.1.15,2013-02-24 22:37:00,
2013-02-25 09:42:00,79.2,70.6,30.03,ENE,63,3.0,5.0,75,0.00,,,0.00,Wunderground v.1.15,2013-02-24 22:42:00,
2013-02-25 09:47:00,79.3,70.7,30.03,NE,54,0.0,5.0,75,0.00,,,0.00,Wunderground v.1.15,2013-02-24 22:47:00,
2013-02-25 09:52:00,79.3,70.3,30.03,NE,55,4.0,5.0,74,0.00,,,0.00,Wunderground v.1.15,2013-02-24 22:52:00,
2013-02-25 09:57:00,79.3,70.7,30.03,East,96,1.0,5.0,75,0.00,,,0.00,Wunderground v.1.15,2013-02-24 22:57:00,
2013-02-25 10:02:00,79.5,70.5,30.03,ENE,60,3.0,5.0,74,0.00,,,0.00,Wunderground v.1.15,2013-02-24 23:02:00,
2013-02-25 10:07:00,79.5,70.9,30.03,North,351,0.0,5.0,75,0.00,,,0.00,Wunderground v.1.15,2013-02-24 23:07:00,
2013-02-25 10:12:00,80.1,71.1,30.03,ESE,113,3.0,5.0,74,0.00,,,0.00,Wunderground v.1.15,2013-02-24 23:12:00,
2013-02-25 10:17:00,80.0,70.6,30.03,NE,40,2.0,5.0,73,0.00,,,0.00,Wunderground v.1.15,2013-02-24 23:17:00,
2013-02-25 10:22:00,79.9,70.9,30.03,NE,51,2.0,2.0,74,0.00,,,0.00,Wunderground v.1.15,2013-02-24 23:22:00,
2013-02-25 10:27:00,79.8,70.4,30.03,ESE,105,1.0,6.0,73,0.00,,,0.00,Wunderground v.1.15,2013-02-24 23:27:00,
2013-02-25 10:32:00,79.6,70.2,30.04,ENE,65,4.0,8.0,73,0.00,,,0.00,Wunderground v.1.15,2013-02-24 23:32:00,
2013-02-25 10:37:00,79.5,70.5,30.03,NE,51,3.0,8.0,74,0.00,,,0.00,Wunderground v.1.15,2013-02-24 23:37:00,
2013-02-25 10:42:00,79.5,70.5,30.04,NNE,23,0.0,3.0,74,0.00,,,0.00,Wunderground v.1.15,2013-02-24 23:42:00,
2013-02-25 10:47:00,80.0,71.0,30.03,NE,55,1.0,4.0,74,0.00,,,0.00,Wunderground v.1.15,2013-02-24 23:47:00,
2013-02-25 10:52:00,80.3,70.9,30.03,SSE,154,3.0,5.0,73,0.00,,,0.00,Wunderground v.1.15,2013-02-24 23:52:00,
2013-02-25 10:57:00,80.8,71.3,30.04,East,82,3.0,8.0,73,0.00,,,0.00,Wunderground v.1.15,2013-02-24 23:57:00,
2013-02-25 11:03:00,81.1,71.6,30.03,NE,42,4.0,4.0,73,0.00,,,0.00,Wunderground v.1.15,2013-02-25 00:03:00,
2013-02-25 11:08:00,81.4,71.5,30.03,ENE,68,3.0,6.0,72,0.00,,,0.00,Wunderground v.1.15,2013-02-25 00:08:00,
2013-02-25 11:13:00,81.5,72.4,30.03,NNE,30,5.0,5.0,74,0.00,,,0.00,Wunderground v.1.15,2013-02-25 00:13:00,
2013-02-25 11:18:00,81.7,72.2,30.03,SE,127,3.0,6.0,73,0.00,,,0.00,Wunderground v.1.15,2013-02-25 00:18:00,
2013-02-25 11:23:00,82.4,72.0,30.03,SSW,206,2.0,4.0,71,0.00,,,0.00,Wunderground v.1.15,2013-02-25 00:23:00,
2013-02-25 11:28:00,82.5,71.7,30.03,ENE,63,3.0,6.0,70,0.00,,,0.00,Wunderground v.1.15,2013-02-25 00:28:00,
2013-02-25 11:33:00,82.3,72.4,30.03,NNE,23,2.0,3.0,72,0.00,,,0.00,Wunderground v.1.15,2013-02-25 00:33:00,
2013-02-25 11:38:00,82.5,72.6,30.03,NNW,333,1.0,5.0,72,0.00,,,0.00,Wunderground v.1.15,2013-02-25 00:38:00,
2013-02-25 11:43:00,83.2,73.2,30.03,NE,37,3.0,4.0,72,0.00,,,0.00,Wunderground v.1.15,2013-02-25 00:43:00,
2013-02-25 11:48:00,83.8,73.0,30.03,ENE,70,3.0,4.0,70,0.00,,,0.00,Wunderground v.1.15,2013-02-25 00:48:00,
2013-02-25 11:53:00,83.7,72.4,30.03,ENE,63,2.0,7.0,69,0.00,,,0.00,Wunderground v.1.15,2013-02-25 00:53:00,
2013-02-25 11:58:00,83.6,72.8,30.02,East,89,2.0,7.0,70,0.00,,,0.00,Wunderground v.1.15,2013-02-25 00:58:00,
2013-02-25 12:03:00,83.9,72.6,30.02,South,183,3.0,6.0,69,0.00,,,0.00,Wunderground v.1.15,2013-02-25 01:03:00,
2013-02-25 12:08:00,83.9,72.6,30.02,NE,40,3.0,8.0,69,0.00,,,0.00,Wunderground v.1.15,2013-02-25 01:08:00,
2013-02-25 12:13:00,83.7,72.0,30.01,NE,45,3.0,5.0,68,0.00,,,0.00,Wunderground v.1.15,2013-02-25 01:13:00,
2013-02-25 12:18:00,84.0,73.2,30.01,ENE,75,2.0,5.0,70,0.00,,,0.00,Wunderground v.1.15,2013-02-25 01:18:00,
2013-02-25 12:23:00,84.4,73.5,30.01,East,81,3.0,5.0,70,0.00,,,0.00,Wunderground v.1.15,2013-02-25 01:23:00,
2013-02-25 12:28:00,84.1,72.8,30.01,East,93,4.0,6.0,69,0.00,,,0.00,Wunderground v.1.15,2013-02-25 01:28:00,
2013-02-25 12:33:00,84.1,72.4,30.01,ENE,68,4.0,6.0,68,0.00,,,0.00,Wunderground v.1.15,2013-02-25 01:33:00,
2013-02-25 12:38:00,84.1,72.4,30.00,SE,133,2.0,7.0,68,0.00,,,0.00,Wunderground v.1.15,2013-02-25 01:38:00,
2013-02-25 12:43:00,84.3,73.0,30.00,NE,54,4.0,5.0,69,0.00,,,0.00,Wunderground v.1.15,2013-02-25 01:43:00,
2013-02-25 12:48:00,84.5,72.8,30.00,ENE,61,6.0,8.0,68,0.00,,,0.00,Wunderground v.1.15,2013-02-25 01:48:00,
2013-02-25 12:53:00,84.3,73.0,30.00,NE,46,3.0,6.0,69,0.00,,,0.00,Wunderground v.1.15,2013-02-25 01:53:00,
2013-02-25 12:58:00,84.0,73.2,30.00,ENE,63,1.0,6.0,70,0.00,,,0.00,Wunderground v.1.15,2013-02-25 01:58:00,
2013-02-25 13:03:00,84.5,72.8,29.99,ENE,65,3.0,6.0,68,0.00,,,0.00,Wunderground v.1.15,2013-02-25 02:03:00,
2013-02-25 13:08:00,84.4,72.7,29.99,ENE,75,1.0,6.0,68,0.00,,,0.00,Wunderground v.1.15,2013-02-25 02:08:00,
2013-02-25 13:13:00,84.4,73.1,29.99,SSE,153,3.0,4.0,69,0.00,,,0.00,Wunderground v.1.15,2013-02-25 02:13:00,
2013-02-25 13:18:00,84.6,73.3,29.99,East,82,2.0,7.0,69,0.00,,,0.00,Wunderground v.1.15,2013-02-25 02:18:00,
2013-02-25 13:23:00,85.1,73.3,29.99,NE,42,1.0,3.0,68,0.00,,,0.00,Wunderground v.1.15,2013-02-25 02:23:00,
2013-02-25 13:28:00,85.5,72.8,29.99,NNE,32,2.0,7.0,66,0.00,,,0.00,Wunderground v.1.15,2013-02-25 02:28:00,
2013-02-25 13:33:00,85.7,73.9,29.99,NNE,18,4.0,4.0,68,0.00,,,0.00,Wunderground v.1.15,2013-02-25 02:33:00,
2013-02-25 13:38:00,85.8,72.7,29.98,NE,34,1.0,8.0,65,0.00,,,0.00,Wunderground v.1.15,2013-02-25 02:38:00,
2013-02-25 13:43:00,85.5,72.8,29.98,NE,56,1.0,5.0,66,0.00,,,0.00,Wunderground v.1.15,2013-02-25 02:43:00,
2013-02-25 13:48:00,85.6,73.4,29.98,ESE,103,2.0,8.0,67,0.00,,,0.00,Wunderground v.1.15,2013-02-25 02:48:00,
2013-02-25 13:53:00,86.0,73.8,29.97,ENE,73,3.0,6.0,67,0.00,,,0.00,Wunderground v.1.15,2013-02-25 02:53:00,
2013-02-25 13:58:00,86.1,73.9,29.97,ESE,108,4.0,6.0,67,0.00,,,0.00,Wunderground v.1.15,2013-02-25 02:58:00,
2013-02-25 14:03:00,86.6,74.3,29.97,ENE,62,3.0,7.0,67,0.00,,,0.00,Wunderground v.1.15,2013-02-25 03:03:00,
2013-02-25 14:08:00,86.7,74.0,29.97,ENE,65,3.0,8.0,66,0.00,,,0.00,Wunderground v.1.15,2013-02-25 03:08:00,
2013-02-25 14:13:00,86.3,73.1,29.97,NE,44,2.0,6.0,65,0.00,,,0.00,Wunderground v.1.15,2013-02-25 03:13:00,
2013-02-25 14:18:00,86.6,73.4,29.97,NE,42,5.0,10.0,65,0.00,,,0.00,Wunderground v.1.15,2013-02-25 03:18:00,
2013-02-25 14:23:00,86.4,73.7,29.97,ENE,77,8.0,13.0,66,0.00,,,0.00,Wunderground v.1.15,2013-02-25 03:23:00,
2013-02-25 14:28:00,86.8,73.6,29.97,ESE,110,4.0,13.0,65,0.00,,,0.00,Wunderground v.1.15,2013-02-25 03:28:00,
2013-02-25 14:33:00,87.1,73.9,29.97,NE,44,2.0,11.0,65,0.00,,,0.00,Wunderground v.1.15,2013-02-25 03:33:00,
2013-02-25 14:38:00,88.0,75.2,29.97,NE,48,3.0,11.0,66,0.00,,,0.00,Wunderground v.1.15,2013-02-25 03:38:00,
2013-02-25 14:43:00,87.9,75.1,29.96,NE,44,3.0,7.0,66,0.00,,,0.00,Wunderground v.1.15,2013-02-25 03:43:00,
2013-02-25 14:48:00,87.5,73.3,29.96,East,93,4.0,10.0,63,0.00,,,0.00,Wunderground v.1.15,2013-02-25 03:48:00,
2013-02-25 14:53:00,87.5,73.8,29.96,NE,41,5.0,7.0,64,0.00,,,0.00,Wunderground v.1.15,2013-02-25 03:53:00,
2013-02-25 14:58:00,87.7,74.5,29.96,NE,48,5.0,7.0,65,0.00,,,0.00,Wunderground v.1.15,2013-02-25 03:58:00,
2013-02-25 15:03:00,86.7,72.6,29.96,NNE,25,3.0,9.0,63,0.00,,,0.00,Wunderground v.1.15,2013-02-25 04:03:00,
2013-02-25 15:08:00,86.3,73.1,29.96,NNE,17,6.0,9.0,65,0.00,,,0.00,Wunderground v.1.15,2013-02-25 04:08:00,
2013-02-25 15:13:00,86.7,73.5,29.96,NNE,32,4.0,8.0,65,0.00,,,0.00,Wunderground v.1.15,2013-02-25 04:13:00,
2013-02-25 15:18:00,87.0,72.4,29.96,NE,45,2.0,8.0,62,0.00,,,0.00,Wunderground v.1.15,2013-02-25 04:18:00,
2013-02-25 15:23:00,86.5,72.4,29.96,ENE,60,2.0,11.0,63,0.00,,,0.00,Wunderground v.1.15,2013-02-25 04:23:00,
2013-02-25 15:28:00,86.8,72.7,29.96,NE,45,3.0,11.0,63,0.00,,,0.00,Wunderground v.1.15,2013-02-25 04:28:00,
2013-02-25 15:33:00,86.7,71.6,29.95,East,82,3.0,10.0,61,0.00,,,0.00,Wunderground v.1.15,2013-02-25 04:33:00,
2013-02-25 15:38:00,86.8,71.7,29.95,NNE,25,8.0,10.0,61,0.00,,,0.00,Wunderground v.1.15,2013-02-25 04:38:00,
2013-02-25 15:43:00,86.5,71.9,29.95,SE,141,2.0,9.0,62,0.00,,,0.00,Wunderground v.1.15,2013-02-25 04:43:00,
2013-02-25 15:49:00,86.6,72.0,29.95,NNW,338,5.0,9.0,62,0.00,,,0.00,Wunderground v.1.15,2013-02-25 04:49:00,
2013-02-25 15:54:00,86.9,72.8,29.95,NE,38,3.0,6.0,63,0.00,,,0.00,Wunderground v.1.15,2013-02-25 04:54:00,
2013-02-25 15:59:00,86.8,72.2,29.95,ENE,58,8.0,8.0,62,0.00,,,0.00,Wunderground v.1.15,2013-02-25 04:59:00,
2013-02-25 16:00:00,86.8,72.7,29.95,ENE,68,2.0,8.0,63,0.00,,,0.00,Wunderground v.1.15,2013-02-25 05:00:00,
2013-02-25 16:01:00,86.8,72.2,29.95,NE,54,8.0,8.0,62,0.00,,,0.00,Wunderground v.1.15,2013-02-25 05:01:00,
2013-02-25 16:06:00,86.7,72.6,29.95,NNE,30,3.0,9.0,63,0.00,,,0.00,Wunderground v.1.15,2013-02-25 05:06:00,
2013-02-25 16:11:00,86.7,72.6,29.95,ENE,65,7.0,7.0,63,0.00,,,0.00,Wunderground v.1.15,2013-02-25 05:11:00,
2013-02-25 16:16:00,86.4,71.4,29.95,NNE,26,4.0,9.0,61,0.00,,,0.00,Wunderground v.1.15,2013-02-25 05:16:00,
2013-02-25 16:21:00,86.3,71.7,29.95,NNE,21,1.0,11.0,62,0.00,,,0.00,Wunderground v.1.15,2013-02-25 05:21:00,
2013-02-25 16:26:00,86.5,71.9,29.95,ENE,59,1.0,11.0,62,0.00,,,0.00,Wunderground v.1.15,2013-02-25 05:26:00,
2013-02-25 16:31:00,86.5,71.9,29.95,NNE,30,5.0,5.0,62,0.00,,,0.00,Wunderground v.1.15,2013-02-25 05:31:00,
2013-02-25 16:37:00,86.5,71.9,29.95,NNW,340,3.0,8.0,62,0.00,,,0.00,Wunderground v.1.15,2013-02-25 05:37:00,
2013-02-25 16:42:00,86.5,71.9,29.95,NE,35,6.0,9.0,62,0.00,,,0.00,Wunderground v.1.15,2013-02-25 05:42:00,
2013-02-25 16:47:00,86.5,71.9,29.95,ENE,77,4.0,9.0,62,0.00,,,0.00,Wunderground v.1.15,2013-02-25 05:47:00,
2013-02-25 16:52:00,86.5,71.9,29.95,NE,51,5.0,9.0,62,0.00,,,0.00,Wunderground v.1.15,2013-02-25 05:52:00,
2013-02-25 16:57:00,86.2,71.2,29.95,NE,46,1.0,9.0,61,0.00,,,0.00,Wunderground v.1.15,2013-02-25 05:57:00,
2013-02-25 17:02:00,86.1,71.6,29.95,NNE,32,5.0,5.0,62,0.00,,,0.00,Wunderground v.1.15,2013-02-25 06:02:00,
2013-02-25 17:07:00,85.5,71.5,29.95,NE,42,2.0,7.0,63,0.00,,,0.00,Wunderground v.1.15,2013-02-25 06:07:00,
2013-02-25 17:12:00,85.3,71.7,29.95,ENE,61,4.0,6.0,64,0.00,,,0.00,Wunderground v.1.15,2013-02-25 06:12:00,
2013-02-25 17:17:00,85.0,71.5,29.95,NNE,24,2.0,7.0,64,0.00,,,0.00,Wunderground v.1.15,2013-02-25 06:17:00,
2013-02-25 17:22:00,84.9,71.8,29.95,ENE,75,4.0,5.0,65,0.00,,,0.00,Wunderground v.1.15,2013-02-25 06:22:00,
2013-02-25 17:27:00,84.8,71.7,29.95,SSE,154,3.0,8.0,65,0.00,,,0.00,Wunderground v.1.15,2013-02-25 06:27:00,
2013-02-25 17:32:00,84.5,71.9,29.95,ENE,73,2.0,6.0,66,0.00,,,0.00,Wunderground v.1.15,2013-02-25 06:32:00,
2013-02-25 17:37:00,84.4,72.2,29.95,SSE,154,1.0,10.0,67,0.00,,,0.00,Wunderground v.1.15,2013-02-25 06:37:00,
2013-02-25 17:42:00,84.3,72.1,29.95,NE,44,1.0,7.0,67,0.00,,,0.00,Wunderground v.1.15,2013-02-25 06:42:00,
2013-02-25 17:47:00,84.1,72.0,29.95,NE,55,3.0,7.0,67,0.00,,,0.00,Wunderground v.1.15,2013-02-25 06:47:00,
2013-02-25 17:52:00,83.7,72.0,29.95,NE,42,5.0,7.0,68,0.00,,,0.00,Wunderground v.1.15,2013-02-25 06:52:00,
2013-02-25 17:57:00,83.3,72.1,29.96,NE,37,5.0,8.0,69,0.00,,,0.00,Wunderground v.1.15,2013-02-25 06:57:00,
2013-02-25 18:02:00,82.8,72.4,29.96,ENE,63,1.0,6.0,71,0.00,,,0.00,Wunderground v.1.15,2013-02-25 07:02:00,
2013-02-25 18:07:00,82.6,72.2,29.96,ENE,64,2.0,6.0,71,0.00,,,0.00,Wunderground v.1.15,2013-02-25 07:07:00,
2013-02-25 18:12:00,82.2,72.3,29.96,NNE,30,2.0,4.0,72,0.00,,,0.00,Wunderground v.1.15,2013-02-25 07:12:00,
2013-02-25 18:17:00,81.9,72.4,29.96,NE,47,3.0,7.0,73,0.00,,,0.00,Wunderground v.1.15,2013-02-25 07:17:00,
2013-02-25 18:22:00,81.6,72.1,29.96,ENE,65,4.0,5.0,73,0.00,,,0.00,Wunderground v.1.15,2013-02-25 07:22:00,
2013-02-25 18:27:00,81.2,72.1,29.96,NE,42,3.0,7.0,74,0.00,,,0.00,Wunderground v.1.15,2013-02-25 07:27:00,
2013-02-25 18:32:00,80.9,72.2,29.96,NNE,27,4.0,4.0,75,0.00,,,0.00,Wunderground v.1.15,2013-02-25 07:32:00,
2013-02-25 18:37:00,80.6,72.3,29.97,NE,40,2.0,6.0,76,0.00,,,0.00,Wunderground v.1.15,2013-02-25 07:37:00,
2013-02-25 18:42:00,80.3,72.4,29.97,East,90,2.0,2.0,77,0.00,,,0.00,Wunderground v.1.15,2013-02-25 07:42:00,
2013-02-25 18:47:00,80.2,72.3,29.97,ENE,73,0.0,4.0,77,0.00,,,0.00,Wunderground v.1.15,2013-02-25 07:47:00,
2013-02-25 18:52:00,79.9,72.0,29.97,NE,44,0.0,2.0,77,0.00,,,0.00,Wunderground v.1.15,2013-02-25 07:52:00,
2013-02-25 18:57:00,79.7,72.2,29.97,East,96,1.0,5.0,78,0.00,,,0.00,Wunderground v.1.15,2013-02-25 07:57:00,
2013-02-25 19:02:00,79.4,71.9,29.98,ENE,62,0.0,2.0,78,0.00,,,0.00,Wunderground v.1.15,2013-02-25 08:02:00,
2013-02-25 19:07:00,79.1,72.0,29.98,NE,37,2.0,4.0,79,0.00,,,0.00,Wunderground v.1.15,2013-02-25 08:07:00,
2013-02-25 19:12:00,78.8,71.7,29.98,East,100,4.0,4.0,79,0.00,,,0.00,Wunderground v.1.15,2013-02-25 08:12:00,
2013-02-25 19:17:00,78.5,71.4,29.98,NE,42,2.0,5.0,79,0.00,,,0.00,Wunderground v.1.15,2013-02-25 08:17:00,
2013-02-25 19:22:00,78.3,71.6,29.98,SSW,200,1.0,2.0,80,0.00,,,0.00,Wunderground v.1.15,2013-02-25 08:22:00,
2013-02-25 19:27:00,78.2,71.9,29.98,NE,42,2.0,3.0,81,0.00,,,0.00,Wunderground v.1.15,2013-02-25 08:27:00,
2013-02-25 19:32:00,77.9,71.6,29.98,NE,54,5.0,6.0,81,0.00,,,0.00,Wunderground v.1.15,2013-02-25 08:32:00,
2013-02-25 19:38:00,77.5,71.2,29.98,ENE,78,2.0,6.0,81,0.00,,,0.00,Wunderground v.1.15,2013-02-25 08:38:00,
2013-02-25 19:43:00,77.3,71.4,29.99,ENE,60,2.0,5.0,82,0.00,,,0.00,Wunderground v.1.15,2013-02-25 08:43:00,
2013-02-25 19:48:00,77.0,71.1,29.99,ENE,69,0.0,5.0,82,0.00,,,0.00,Wunderground v.1.15,2013-02-25 08:48:00,
2013-02-25 19:53:00,76.8,70.9,29.99,ENE,62,4.0,5.0,82,0.00,,,0.00,Wunderground v.1.15,2013-02-25 08:53:00,
2013-02-25 19:58:00,76.6,71.0,29.99,NE,41,2.0,5.0,83,0.00,,,0.00,Wunderground v.1.15,2013-02-25 08:58:00,
2013-02-25 20:03:00,76.4,70.9,29.99,NE,46,1.0,5.0,83,0.00,,,0.00,Wunderground v.1.15,2013-02-25 09:03:00,
2013-02-25 20:08:00,76.3,70.8,29.99,ENE,76,2.0,5.0,83,0.00,,,0.00,Wunderground v.1.15,2013-02-25 09:08:00,
2013-02-25 20:13:00,76.1,70.9,29.99,NE,54,1.0,3.0,84,0.00,,,0.00,Wunderground v.1.15,2013-02-25 09:13:00,
2013-02-25 20:18:00,76.0,70.8,29.99,ENE,76,1.0,4.0,84,0.00,,,0.00,Wunderground v.1.15,2013-02-25 09:18:00,
2013-02-25 20:23:00,75.9,70.7,30.00,ESE,113,1.0,4.0,84,0.00,,,0.00,Wunderground v.1.15,2013-02-25 09:23:00,
2013-02-25 20:28:00,75.7,70.9,30.00,NNE,32,0.0,4.0,85,0.00,,,0.00,Wunderground v.1.15,2013-02-25 09:28:00,
2013-02-25 20:33:00,75.6,70.8,30.00,SSE,153,1.0,3.0,85,0.00,,,0.00,Wunderground v.1.15,2013-02-25 09:33:00,
2013-02-25 20:38:00,75.5,70.7,30.00,ENE,70,0.0,4.0,85,0.00,,,0.00,Wunderground v.1.15,2013-02-25 09:38:00,
2013-02-25 20:43:00,75.4,70.6,30.00,East,98,1.0,3.0,85,0.00,,,0.00,Wunderground v.1.15,2013-02-25 09:43:00,
2013-02-25 20:48:00,75.3,70.5,30.00,NE,55,1.0,3.0,85,0.00,,,0.00,Wunderground v.1.15,2013-02-25 09:48:00,
2013-02-25 20:53:00,75.2,70.4,30.01,North,356,1.0,3.0,85,0.00,,,0.00,Wunderground v.1.15,2013-02-25 09:53:00,
2013-02-25 20:58:00,75.1,70.3,30.01,ESE,118,2.0,4.0,85,0.00,,,0.00,Wunderground v.1.15,2013-02-25 09:58:00,
2013-02-25 21:03:00,75.0,70.2,30.01,ESE,103,1.0,3.0,85,0.00,,,0.00,Wunderground v.1.15,2013-02-25 10:03:00,
2013-02-25 21:08:00,75.0,70.2,30.02,NE,55,2.0,3.0,85,0.00,,,0.00,Wunderground v.1.15,2013-02-25 10:08:00,
2013-02-25 21:13:00,74.9,70.1,30.02,ENE,66,0.0,3.0,85,0.00,,,0.00,Wunderground v.1.15,2013-02-25 10:13:00,
2013-02-25 21:18:00,74.9,70.1,30.02,ENE,60,0.0,3.0,85,0.00,,,0.00,Wunderground v.1.15,2013-02-25 10:18:00,
2013-02-25 21:23:00,74.9,70.1,30.02,ENE,62,1.0,5.0,85,0.00,,,0.00,Wunderground v.1.15,2013-02-25 10:23:00,
2013-02-25 21:28:00,74.8,70.0,30.02,ENE,63,0.0,5.0,85,0.00,,,0.00,Wunderground v.1.15,2013-02-25 10:28:00,
2013-02-25 21:33:00,74.8,70.0,30.03,SE,126,0.0,2.0,85,0.00,,,0.00,Wunderground v.1.15,2013-02-25 10:33:00,
2013-02-25 21:38:00,74.8,69.6,30.03,ENE,60,1.0,3.0,84,0.00,,,0.00,Wunderground v.1.15,2013-02-25 10:38:00,
2013-02-25 21:43:00,74.7,69.5,30.03,East,89,1.0,4.0,84,0.00,,,0.00,Wunderground v.1.15,2013-02-25 10:43:00,
2013-02-25 21:48:00,74.7,69.5,30.03,ENE,65,2.0,5.0,84,0.00,,,0.00,Wunderground v.1.15,2013-02-25 10:48:00,
2013-02-25 21:53:00,74.6,69.4,30.04,ENE,62,2.0,4.0,84,0.00,,,0.00,Wunderground v.1.15,2013-02-25 10:53:00,
2013-02-25 21:58:00,74.6,69.4,30.04,NE,56,3.0,4.0,84,0.00,,,0.00,Wunderground v.1.15,2013-02-25 10:58:00,
2013-02-25 22:03:00,74.5,69.7,30.04,ENE,58,0.0,3.0,85,0.00,,,0.00,Wunderground v.1.15,2013-02-25 11:03:00,
2013-02-25 22:08:00,74.4,69.6,30.04,NNE,32,0.0,3.0,85,0.00,,,0.00,Wunderground v.1.15,2013-02-25 11:08:00,
2013-02-25 22:13:00,74.3,69.5,30.04,NE,48,3.0,3.0,85,0.00,,,0.00,Wunderground v.1.15,2013-02-25 11:13:00,
2013-02-25 22:18:00,74.3,69.5,30.04,East,86,1.0,4.0,85,0.00,,,0.00,Wunderground v.1.15,2013-02-25 11:18:00,
2013-02-25 22:23:00,74.2,69.4,30.04,NE,42,2.0,4.0,85,0.00,,,0.00,Wunderground v.1.15,2013-02-25 11:23:00,
2013-02-25 22:28:00,74.1,69.3,30.04,ENE,70,2.0,4.0,85,0.00,,,0.00,Wunderground v.1.15,2013-02-25 11:28:00,
2013-02-25 22:33:00,74.0,69.5,30.04,NE,56,2.0,3.0,86,0.00,,,0.00,Wunderground v.1.15,2013-02-25 11:33:00,
2013-02-25 22:38:00,73.9,69.4,30.04,East,96,2.0,6.0,86,0.00,,,0.00,Wunderground v.1.15,2013-02-25 11:38:00,
2013-02-25 22:43:00,73.9,69.4,30.04,SE,141,0.0,3.0,86,0.00,,,0.00,Wunderground v.1.15,2013-02-25 11:43:00,
2013-02-25 22:48:00,73.8,69.3,30.04,East,97,1.0,4.0,86,0.00,,,0.00,Wunderground v.1.15,2013-02-25 11:48:00,
2013-02-25 22:53:00,73.7,69.2,30.05,NE,49,0.0,2.0,86,0.00,,,0.00,Wunderground v.1.15,2013-02-25 11:53:00,
2013-02-25 22:58:00,73.6,69.5,30.05,NE,44,0.0,2.0,87,0.00,,,0.00,Wunderground v.1.15,2013-02-25 11:58:00,
2013-02-25 23:03:00,73.6,69.5,30.05,ENE,65,0.0,3.0,87,0.00,,,0.00,Wunderground v.1.15,2013-02-25 12:03:00,
2013-02-25 23:08:00,73.5,69.4,30.04,NE,52,1.0,3.0,87,0.00,,,0.00,Wunderground v.1.15,2013-02-25 12:08:00,
2013-02-25 23:13:00,73.5,69.4,30.04,ESE,105,0.0,3.0,87,0.00,,,0.00,Wunderground v.1.15,2013-02-25 12:13:00,
2013-02-25 23:18:00,73.3,69.2,30.04,East,91,3.0,3.0,87,0.00,,,0.00,Wunderground v.1.15,2013-02-25 12:18:00,
2013-02-25 23:23:00,73.3,69.2,30.04,ENE,75,1.0,3.0,87,0.00,,,0.00,Wunderground v.1.15,2013-02-25 12:23:00,
2013-02-25 23:28:00,73.3,69.2,30.04,East,85,0.0,5.0,87,0.00,,,0.00,Wunderground v.1.15,2013-02-25 12:28:00,
2013-02-25 23:33:00,73.3,69.2,30.04,ENE,77,0.0,3.0,87,0.00,,,0.00,Wunderground v.1.15,2013-02-25 12:33:00,
2013-02-25 23:38:00,73.2,69.1,30.04,NE,56,1.0,3.0,87,0.00,,,0.00,Wunderground v.1.15,2013-02-25 12:38:00,
2013-02-25 23:43:00,73.1,69.0,30.04,South,180,1.0,3.0,87,0.00,,,0.00,Wunderground v.1.15,2013-02-25 12:43:00,
2013-02-25 23:48:00,73.1,69.0,30.04,NE,50,1.0,3.0,87,0.00,,,0.00,Wunderground v.1.15,2013-02-25 12:48:00,
2013-02-25 23:54:00,73.1,69.3,30.04,ENE,61,3.0,4.0,88,0.00,,,0.00,Wunderground v.1.15,2013-02-25 12:54:00,
2013-02-25 23:59:00,73.0,69.2,30.04,East,83,1.0,4.0,88,0.00,,,0.00,Wunderground v.1.15,2013-02-25 12:59:00,